createdAt,value
2018-07-17T00:00:57.814Z,1007.01
2018-07-17T00:01:57.765Z,1007.01
2018-07-17T00:02:57.674Z,1007.05
2018-07-17T00:03:57.609Z,1007.05
2018-07-17T00:04:57.538Z,1007.10
2018-07-17T00:05:57.477Z,1007.14
2018-07-17T00:06:57.403Z,1007.13
2018-07-17T00:07:57.329Z,1007.13
2018-07-17T00:08:57.261Z,1007.12
2018-07-17T00:09:57.191Z,1007.08
2018-07-17T00:10:57.126Z,1007.11
2018-07-17T00:11:57.056Z,1007.04
2018-07-17T00:12:56.975Z,1007.01
2018-07-17T00:13:56.918Z,1007.01
2018-07-17T00:14:56.846Z,1007.02
2018-07-17T00:15:56.779Z,1007.02
2018-07-17T00:16:56.704Z,1007.05
2018-07-17T00:17:56.633Z,1007.07
2018-07-17T00:18:56.561Z,1007.06
2018-07-17T00:19:56.493Z,1007.09
2018-07-17T00:20:56.423Z,1007.06
2018-07-17T00:21:56.358Z,1007.07
2018-07-17T00:22:56.289Z,1006.99
2018-07-17T00:23:56.217Z,1006.99
2018-07-17T00:24:56.151Z,1007.01
2018-07-17T00:25:56.078Z,1007.02
2018-07-17T00:26:56.010Z,1007.05
2018-07-17T00:27:56.015Z,1007.04
2018-07-17T00:28:55.871Z,1007.05
2018-07-17T00:29:55.795Z,1007.08
2018-07-17T00:30:55.740Z,1007.09
2018-07-17T00:31:55.667Z,1007.05
2018-07-17T00:32:55.591Z,1007.07
2018-07-17T00:33:55.523Z,1007.04
2018-07-17T00:34:55.459Z,1007.03
2018-07-17T00:35:55.383Z,1007.03
2018-07-17T00:36:55.310Z,1007.04
2018-07-17T00:37:55.244Z,1007.06
2018-07-17T00:38:55.175Z,1007.02
2018-07-17T00:39:55.104Z,1007.05
2018-07-17T00:40:55.031Z,1007.04
2018-07-17T00:41:54.970Z,1007.03
2018-07-17T00:42:54.894Z,1007.03
2018-07-17T00:43:54.823Z,1007.07
2018-07-17T00:44:54.751Z,1007.07
2018-07-17T00:45:54.686Z,1007.02
2018-07-17T00:46:54.617Z,1007.02
2018-07-17T00:47:54.547Z,1006.97
2018-07-17T00:48:54.481Z,1007.01
2018-07-17T00:49:54.458Z,1006.99
2018-07-17T00:50:54.329Z,1007.01
2018-07-17T00:51:54.267Z,1006.98
2018-07-17T00:52:54.196Z,1006.96
2018-07-17T00:53:54.126Z,1006.97
2018-07-17T00:54:54.054Z,1006.98
2018-07-17T00:55:53.990Z,1006.94
2018-07-17T00:56:53.912Z,1006.92
2018-07-17T00:57:53.858Z,1006.91
2018-07-17T00:58:53.777Z,1006.90
2018-07-17T00:59:53.730Z,1006.88
2018-07-17T01:00:53.668Z,1006.89
2018-07-17T01:01:53.569Z,1006.86
2018-07-17T01:02:53.494Z,1006.86
2018-07-17T01:03:53.427Z,1006.88
2018-07-17T01:04:53.369Z,1006.83
2018-07-17T01:05:53.289Z,1006.85
2018-07-17T01:06:53.238Z,1006.87
2018-07-17T01:07:53.149Z,1006.86
2018-07-17T01:08:53.081Z,1006.88
2018-07-17T01:09:53.014Z,1006.91
2018-07-17T01:10:52.933Z,1006.89
2018-07-17T01:11:52.871Z,1006.89
2018-07-17T01:12:52.812Z,1006.91
2018-07-17T01:13:52.728Z,1006.89
2018-07-17T01:14:52.654Z,1006.90
2018-07-17T01:15:52.586Z,1006.87
2018-07-17T01:16:52.518Z,1006.91
2018-07-17T01:17:52.446Z,1006.94
2018-07-17T01:18:52.377Z,1006.94
2018-07-17T01:19:52.308Z,1006.99
2018-07-17T01:20:52.233Z,1006.94
2018-07-17T01:21:52.172Z,1006.97
2018-07-17T01:22:52.095Z,1006.92
2018-07-17T01:23:52.024Z,1006.91
2018-07-17T01:24:51.957Z,1006.92
2018-07-17T01:25:51.876Z,1006.89
2018-07-17T01:26:51.814Z,1006.94
2018-07-17T01:27:51.745Z,1006.94
2018-07-17T01:28:51.671Z,1006.92
2018-07-17T01:29:51.606Z,1006.93
2018-07-17T01:30:51.535Z,1006.88
2018-07-17T01:31:51.463Z,1006.92
2018-07-17T01:32:51.398Z,1006.93
2018-07-17T01:33:51.326Z,1006.92
2018-07-17T01:34:51.252Z,1006.93
2018-07-17T01:35:51.182Z,1006.94
2018-07-17T01:36:51.117Z,1006.95
2018-07-17T01:37:51.037Z,1006.93
2018-07-17T01:38:50.971Z,1006.97
2018-07-17T01:39:50.899Z,1006.93
2018-07-17T01:40:50.828Z,1006.95
2018-07-17T01:41:50.759Z,1006.97
2018-07-17T01:42:50.702Z,1006.95
2018-07-17T01:43:50.615Z,1006.97
2018-07-17T01:44:50.548Z,1006.99
2018-07-17T01:45:50.475Z,1007.02
2018-07-17T01:46:50.404Z,1007.02
2018-07-17T01:47:50.332Z,1007.02
2018-07-17T01:48:50.326Z,1007.02
2018-07-17T01:49:50.192Z,1006.98
2018-07-17T01:50:50.136Z,1007.01
2018-07-17T01:51:50.058Z,1006.96
2018-07-17T01:52:50.000Z,1007.01
2018-07-17T01:53:49.910Z,1006.97
2018-07-17T01:54:49.847Z,1006.95
2018-07-17T01:55:49.768Z,1006.91
2018-07-17T01:56:49.701Z,1006.92
2018-07-17T01:57:49.630Z,1006.92
2018-07-17T01:58:49.562Z,1006.96
2018-07-17T01:59:49.486Z,1006.94
2018-07-17T02:00:49.418Z,1006.96
2018-07-17T02:01:49.356Z,1006.92
2018-07-17T02:02:49.281Z,1006.93
2018-07-17T02:03:49.207Z,1006.94
2018-07-17T02:04:49.195Z,1006.92
2018-07-17T02:05:49.064Z,1006.91
2018-07-17T02:06:48.998Z,1006.90
2018-07-17T02:07:48.925Z,1006.94
2018-07-17T02:08:48.855Z,1006.95
2018-07-17T02:09:48.787Z,1006.96
2018-07-17T02:10:48.709Z,1006.98
2018-07-17T02:11:48.649Z,1006.98
2018-07-17T02:12:48.570Z,1007.03
2018-07-17T02:13:48.493Z,1007.03
2018-07-17T02:14:48.425Z,1007.04
2018-07-17T02:15:48.355Z,1007.03
2018-07-17T02:16:48.286Z,1007.04
2018-07-17T02:17:48.238Z,1006.98
2018-07-17T02:18:48.176Z,1006.98
2018-07-17T02:19:48.073Z,1006.92
2018-07-17T02:20:48.005Z,1006.89
2018-07-17T02:21:47.938Z,1006.84
2018-07-17T02:22:47.858Z,1006.84
2018-07-17T02:23:47.789Z,1006.86
2018-07-17T02:24:47.721Z,1006.86
2018-07-17T02:25:47.650Z,1006.88
2018-07-17T02:26:47.596Z,1006.87
2018-07-17T02:27:47.508Z,1006.79
2018-07-17T02:28:47.434Z,1006.91
2018-07-17T02:29:47.369Z,1006.83
2018-07-17T02:30:47.293Z,1006.85
2018-07-17T02:31:47.227Z,1006.86
2018-07-17T02:32:47.160Z,1006.84
2018-07-17T02:33:47.081Z,1006.84
2018-07-17T02:34:47.026Z,1006.84
2018-07-17T02:35:46.940Z,1006.83
2018-07-17T02:36:46.874Z,1006.82
2018-07-17T02:37:46.801Z,1006.78
2018-07-17T02:38:46.737Z,1006.78
2018-07-17T02:39:46.652Z,1006.78
2018-07-17T02:40:46.585Z,1006.77
2018-07-17T02:41:46.522Z,1006.79
2018-07-17T02:42:46.443Z,1006.80
2018-07-17T02:43:46.366Z,1006.81
2018-07-17T02:44:46.305Z,1006.80
2018-07-17T02:45:46.228Z,1006.79
2018-07-17T02:46:46.159Z,1006.86
2018-07-17T02:47:46.088Z,1006.84
2018-07-17T02:48:46.050Z,1006.83
2018-07-17T02:49:45.945Z,1006.82
2018-07-17T02:50:45.879Z,1006.81
2018-07-17T02:51:45.805Z,1006.81
2018-07-17T02:52:45.737Z,1006.82
2018-07-17T02:53:45.665Z,1006.78
2018-07-17T02:54:45.596Z,1006.82
2018-07-17T02:55:45.519Z,1006.81
2018-07-17T02:56:45.447Z,1006.78
2018-07-17T02:57:45.413Z,1006.81
2018-07-17T02:58:45.322Z,1006.85
2018-07-17T02:59:45.244Z,1006.84
2018-07-17T03:00:45.165Z,1006.86
2018-07-17T03:01:45.098Z,1006.83
2018-07-17T03:02:45.024Z,1006.82
2018-07-17T03:03:44.952Z,1006.80
2018-07-17T03:04:44.878Z,1006.79
2018-07-17T03:05:44.808Z,1006.77
2018-07-17T03:06:44.740Z,1006.76
2018-07-17T03:07:44.664Z,1006.73
2018-07-17T03:08:44.596Z,1006.76
2018-07-17T03:09:44.525Z,1006.78
2018-07-17T03:10:44.451Z,1006.79
2018-07-17T03:11:44.382Z,1006.79
2018-07-17T03:12:44.314Z,1006.79
2018-07-17T03:13:44.247Z,1006.79
2018-07-17T03:14:44.162Z,1006.80
2018-07-17T03:15:44.091Z,1006.83
2018-07-17T03:16:44.043Z,1006.80
2018-07-17T03:17:43.953Z,1006.84
2018-07-17T03:18:43.891Z,1006.83
2018-07-17T03:19:43.809Z,1006.90
2018-07-17T03:20:43.752Z,1006.90
2018-07-17T03:21:43.668Z,1006.90
2018-07-17T03:22:43.602Z,1006.94
2018-07-17T03:23:43.521Z,1006.96
2018-07-17T03:24:43.488Z,1007.02
2018-07-17T03:25:43.381Z,1007.01
2018-07-17T03:26:43.310Z,1007.06
2018-07-17T03:27:43.239Z,1007.09
2018-07-17T03:28:43.172Z,1007.08
2018-07-17T03:29:43.097Z,1007.08
2018-07-17T03:30:43.043Z,1007.08
2018-07-17T03:31:42.954Z,1007.11
2018-07-17T03:32:42.885Z,1007.11
2018-07-17T03:33:42.814Z,1007.12
2018-07-17T03:34:42.740Z,1007.16
2018-07-17T03:35:42.672Z,1007.15
2018-07-17T03:36:42.599Z,1007.15
2018-07-17T03:37:42.527Z,1007.15
2018-07-17T03:38:42.457Z,1007.16
2018-07-17T03:39:42.386Z,1007.21
2018-07-17T03:40:42.316Z,1007.19
2018-07-17T03:41:42.242Z,1007.21
2018-07-17T03:42:42.169Z,1007.26
2018-07-17T03:43:42.104Z,1007.30
2018-07-17T03:44:42.031Z,1007.33
2018-07-17T03:45:41.968Z,1007.33
2018-07-17T03:46:41.887Z,1007.34
2018-07-17T03:47:41.818Z,1007.35
2018-07-17T03:48:41.745Z,1007.37
2018-07-17T03:49:41.679Z,1007.34
2018-07-17T03:50:41.600Z,1007.37
2018-07-17T03:51:41.531Z,1007.39
2018-07-17T03:52:41.457Z,1007.39
2018-07-17T03:53:41.387Z,1007.39
2018-07-17T03:54:41.317Z,1007.38
2018-07-17T03:55:41.248Z,1007.40
2018-07-17T03:56:41.177Z,1007.46
2018-07-17T03:57:41.102Z,1007.52
2018-07-17T03:58:41.041Z,1007.56
2018-07-17T03:59:40.980Z,1007.56
2018-07-17T04:00:40.890Z,1007.55
2018-07-17T04:01:40.818Z,1007.59
2018-07-17T04:02:40.748Z,1007.53
2018-07-17T04:03:40.676Z,1007.57
2018-07-17T04:04:40.603Z,1007.52
2018-07-17T04:05:40.532Z,1007.52
2018-07-17T04:06:40.468Z,1007.50
2018-07-17T04:07:40.392Z,1007.51
2018-07-17T04:08:40.372Z,1007.52
2018-07-17T04:09:40.255Z,1007.54
2018-07-17T04:10:40.202Z,1007.49
2018-07-17T04:11:40.120Z,1007.51
2018-07-17T04:12:40.033Z,1007.50
2018-07-17T04:13:39.965Z,1007.50
2018-07-17T04:14:39.926Z,1007.53
2018-07-17T04:15:39.827Z,1007.52
2018-07-17T04:16:39.758Z,1007.54
2018-07-17T04:17:39.686Z,1007.57
2018-07-17T04:18:39.604Z,1007.54
2018-07-17T04:19:39.535Z,1007.56
2018-07-17T04:20:39.468Z,1007.58
2018-07-17T04:21:39.408Z,1007.56
2018-07-17T04:22:39.327Z,1007.59
2018-07-17T04:23:39.254Z,1007.58
2018-07-17T04:24:39.176Z,1007.56
2018-07-17T04:25:39.109Z,1007.61
2018-07-17T04:26:39.037Z,1007.59
2018-07-17T04:27:38.976Z,1007.57
2018-07-17T04:28:38.897Z,1007.59
2018-07-17T04:29:38.826Z,1007.56
2018-07-17T04:30:38.753Z,1007.59
2018-07-17T04:31:38.725Z,1007.61
2018-07-17T04:32:38.609Z,1007.56
2018-07-17T04:33:38.543Z,1007.54
2018-07-17T04:34:38.480Z,1007.63
2018-07-17T04:35:38.403Z,1007.59
2018-07-17T04:36:38.344Z,1007.59
2018-07-17T04:37:38.260Z,1007.58
2018-07-17T04:38:38.183Z,1007.60
2018-07-17T04:39:38.125Z,1007.56
2018-07-17T04:40:38.042Z,1007.59
2018-07-17T04:41:37.971Z,1007.61
2018-07-17T04:42:37.900Z,1007.59
2018-07-17T04:43:37.833Z,1007.66
2018-07-17T04:44:37.754Z,1007.65
2018-07-17T04:45:37.686Z,1007.68
2018-07-17T04:46:37.633Z,1007.67
2018-07-17T04:47:37.545Z,1007.66
2018-07-17T04:48:37.489Z,1007.63
2018-07-17T04:49:37.403Z,1007.65
2018-07-17T04:50:37.335Z,1007.60
2018-07-17T04:51:37.261Z,1007.61
2018-07-17T04:52:37.190Z,1007.68
2018-07-17T04:53:37.117Z,1007.71
2018-07-17T04:54:37.047Z,1007.76
2018-07-17T04:55:36.977Z,1007.79
2018-07-17T04:56:36.908Z,1007.82
2018-07-17T04:57:36.835Z,1007.82
2018-07-17T04:58:36.780Z,1007.86
2018-07-17T04:59:36.691Z,1007.86
2018-07-17T05:00:36.620Z,1007.86
2018-07-17T05:01:36.589Z,1007.91
2018-07-17T05:02:36.483Z,1007.92
2018-07-17T05:03:36.408Z,1007.95
2018-07-17T05:04:36.339Z,1007.98
2018-07-17T05:05:36.284Z,1007.97
2018-07-17T05:06:36.194Z,1007.95
2018-07-17T05:07:36.124Z,1007.95
2018-07-17T05:08:36.052Z,1007.97
2018-07-17T05:09:35.982Z,1007.91
2018-07-17T05:10:35.911Z,1007.94
2018-07-17T05:11:35.839Z,1007.93
2018-07-17T05:12:35.770Z,1007.96
2018-07-17T05:13:35.711Z,1007.96
2018-07-17T05:14:35.619Z,1008.01
2018-07-17T05:15:35.557Z,1007.99
2018-07-17T05:16:35.486Z,1008.02
2018-07-17T05:17:35.418Z,1008.01
2018-07-17T05:18:35.354Z,1008.00
2018-07-17T05:19:35.271Z,1007.99
2018-07-17T05:20:35.200Z,1007.98
2018-07-17T05:21:35.130Z,1007.99
2018-07-17T05:22:35.055Z,1008.00
2018-07-17T05:23:34.993Z,1008.09
2018-07-17T05:24:34.917Z,1008.06
2018-07-17T05:25:34.868Z,1008.11
2018-07-17T05:26:34.774Z,1008.11
2018-07-17T05:27:34.712Z,1008.08
2018-07-17T05:28:34.634Z,1008.06
2018-07-17T05:29:34.569Z,1008.09
2018-07-17T05:30:34.489Z,1008.13
2018-07-17T05:31:34.425Z,1008.18
2018-07-17T05:32:34.353Z,1008.24
2018-07-17T05:33:34.285Z,1008.24
2018-07-17T05:34:34.207Z,1008.20
2018-07-17T05:35:34.211Z,1008.18
2018-07-17T05:36:34.114Z,1008.17
2018-07-17T05:37:34.005Z,1008.16
2018-07-17T05:38:33.929Z,1008.20
2018-07-17T05:39:33.857Z,1008.22
2018-07-17T05:40:33.794Z,1008.19
2018-07-17T05:41:33.722Z,1008.18
2018-07-17T05:42:33.650Z,1008.20
2018-07-17T05:43:33.579Z,1008.22
2018-07-17T05:44:33.505Z,1008.24
2018-07-17T05:45:33.431Z,1008.26
2018-07-17T05:46:33.403Z,1008.25
2018-07-17T05:47:33.295Z,1008.26
2018-07-17T05:48:33.229Z,1008.22
2018-07-17T05:49:33.155Z,1008.29
2018-07-17T05:55:47.644Z,1008.28
2018-07-17T05:56:47.550Z,1008.30
2018-07-17T05:58:40.313Z,1008.27
2018-07-17T05:59:40.230Z,1008.28
2018-07-17T06:01:33.007Z,1008.28
2018-07-17T06:02:32.925Z,1008.28
2018-07-17T06:04:25.692Z,1008.26
2018-07-17T06:05:25.617Z,1008.27
2018-07-17T06:07:18.433Z,1008.31
2018-07-17T06:08:18.350Z,1008.31
2018-07-17T06:10:11.274Z,1008.29
2018-07-17T06:11:11.183Z,1008.33
2018-07-17T06:13:03.966Z,1008.32
2018-07-17T06:14:03.881Z,1008.26
2018-07-17T06:15:56.654Z,1008.31
2018-07-17T06:16:56.572Z,1008.33
2018-07-17T06:18:49.490Z,1008.38
2018-07-17T06:19:49.368Z,1008.39
2018-07-17T06:21:42.225Z,1008.37
2018-07-17T06:22:42.141Z,1008.37
2018-07-17T06:24:34.912Z,1008.36
2018-07-17T06:25:34.829Z,1008.35
2018-07-17T06:27:27.610Z,1008.34
2018-07-17T06:28:27.519Z,1008.35
2018-07-17T06:30:20.294Z,1008.36
2018-07-17T06:31:20.216Z,1008.35
2018-07-17T06:33:12.988Z,1008.39
2018-07-17T06:34:12.908Z,1008.41
2018-07-17T06:36:05.676Z,1008.38
2018-07-17T06:37:05.595Z,1008.39
2018-07-17T06:38:58.518Z,1008.44
2018-07-17T06:39:58.430Z,1008.43
2018-07-17T06:41:51.234Z,1008.47
2018-07-17T06:42:51.168Z,1008.47
2018-07-17T06:44:44.064Z,1008.53
2018-07-17T06:45:43.955Z,1008.49
2018-07-17T06:47:36.726Z,1008.54
2018-07-17T06:48:36.646Z,1008.50
2018-07-17T06:50:29.514Z,1008.50
2018-07-17T06:51:29.343Z,1008.44
2018-07-17T06:53:22.119Z,1008.50
2018-07-17T06:54:22.051Z,1008.53
2018-07-17T06:56:14.820Z,1008.56
2018-07-17T06:57:14.746Z,1008.55
2018-07-17T06:59:07.515Z,1008.57
2018-07-17T07:00:07.436Z,1008.59
2018-07-17T07:02:00.321Z,1008.50
2018-07-17T07:03:00.240Z,1008.55
2018-07-17T07:04:53.125Z,1008.57
2018-07-17T07:05:53.052Z,1008.54
2018-07-17T07:07:45.818Z,1008.54
2018-07-17T07:08:45.756Z,1008.55
2018-07-17T07:10:38.510Z,1008.57
2018-07-17T07:11:38.429Z,1008.57
2018-07-17T07:13:31.212Z,1008.58
2018-07-17T07:14:31.128Z,1008.57
2018-07-17T07:16:23.913Z,1008.55
2018-07-17T07:17:23.823Z,1008.54
2018-07-17T07:19:16.612Z,1008.61
2018-07-17T07:20:16.547Z,1008.63
2018-07-17T07:22:09.428Z,1008.60
2018-07-17T07:23:09.343Z,1008.60
2018-07-17T07:25:02.219Z,1008.57
2018-07-17T07:26:02.200Z,1008.53
2018-07-17T07:27:54.928Z,1008.57
2018-07-17T07:28:54.866Z,1008.59
2018-07-17T07:30:47.802Z,1008.58
2018-07-17T07:31:47.737Z,1008.61
2018-07-17T07:33:40.625Z,1008.60
2018-07-17T07:34:40.428Z,1008.63
2018-07-17T07:36:33.223Z,1008.60
2018-07-17T07:37:33.151Z,1008.62
2018-07-17T07:39:25.927Z,1008.60
2018-07-17T07:40:25.855Z,1008.61
2018-07-17T07:42:18.638Z,1008.65
2018-07-17T07:43:18.554Z,1008.63
2018-07-17T07:45:11.446Z,1008.64
2018-07-17T07:46:11.373Z,1008.67
2018-07-17T07:48:04.272Z,1008.66
2018-07-17T07:49:04.194Z,1008.63
2018-07-17T07:50:56.960Z,1008.63
2018-07-17T07:51:56.899Z,1008.65
2018-07-17T07:53:50.379Z,1008.68
2018-07-17T07:54:50.286Z,1008.67
2018-07-17T07:56:43.069Z,1008.67
2018-07-17T07:57:42.985Z,1008.70
2018-07-17T07:59:35.763Z,1008.68
2018-07-17T08:00:35.687Z,1008.65
2018-07-17T08:02:28.468Z,1008.65
2018-07-17T08:03:28.423Z,1008.63
2018-07-17T08:05:21.168Z,1008.67
2018-07-17T08:06:21.094Z,1008.67
2018-07-17T08:08:13.983Z,1008.69
2018-07-17T08:09:13.909Z,1008.68
2018-07-17T08:11:06.736Z,1008.70
2018-07-17T08:12:06.735Z,1008.67
2018-07-17T08:13:59.471Z,1008.65
2018-07-17T08:14:59.363Z,1008.70
2018-07-17T08:16:52.260Z,1008.69
2018-07-17T08:17:52.174Z,1008.72
2018-07-17T08:19:44.978Z,1008.71
2018-07-17T08:20:44.908Z,1008.68
2018-07-17T08:22:37.707Z,1008.71
2018-07-17T08:23:37.609Z,1008.69
2018-07-17T08:25:30.375Z,1008.70
2018-07-17T08:26:30.308Z,1008.71
2018-07-17T08:28:23.093Z,1008.71
2018-07-17T08:29:23.012Z,1008.73
2018-07-17T08:31:15.779Z,1008.77
2018-07-17T08:32:15.712Z,1008.76
2018-07-17T08:34:08.611Z,1008.76
2018-07-17T08:35:08.532Z,1008.76
2018-07-17T08:37:01.446Z,1008.69
2018-07-17T08:38:01.362Z,1008.68
2018-07-17T08:39:54.257Z,1008.68
2018-07-17T08:40:54.178Z,1008.69
2018-07-17T08:42:47.074Z,1008.71
2018-07-17T08:43:46.993Z,1008.76
2018-07-17T08:45:39.764Z,1008.74
2018-07-17T08:46:39.694Z,1008.76
2018-07-17T08:48:32.486Z,1008.72
2018-07-17T08:49:32.402Z,1008.73
2018-07-17T08:51:25.191Z,1008.71
2018-07-17T08:52:25.115Z,1008.72
2018-07-17T08:54:17.901Z,1008.75
2018-07-17T08:55:17.820Z,1008.76
2018-07-17T08:57:10.675Z,1008.79
2018-07-17T08:58:10.589Z,1008.76
2018-07-17T09:00:03.476Z,1008.78
2018-07-17T09:01:03.406Z,1008.80
2018-07-17T09:02:56.190Z,1008.82
2018-07-17T09:03:56.102Z,1008.82
2018-07-17T09:05:49.048Z,1008.84
2018-07-17T09:06:48.924Z,1008.81
2018-07-17T09:08:42.286Z,1008.89
2018-07-17T09:09:42.211Z,1008.90
2018-07-17T09:11:35.046Z,1008.90
2018-07-17T09:12:34.970Z,1008.97
2018-07-17T09:14:27.755Z,1008.89
2018-07-17T09:15:27.711Z,1008.93
2018-07-17T09:17:20.462Z,1008.96
2018-07-17T09:18:20.381Z,1008.94
2018-07-17T09:20:13.164Z,1009.01
2018-07-17T09:21:13.100Z,1009.02
2018-07-17T09:23:06.010Z,1009.02
2018-07-17T09:24:05.938Z,1009.04
2018-07-17T09:25:58.818Z,1008.99
2018-07-17T09:26:58.747Z,1009.00
2018-07-17T09:27:58.685Z,1009.04
2018-07-17T09:28:58.622Z,1009.00
2018-07-17T09:29:58.578Z,1009.01
2018-07-17T09:30:58.504Z,1009.04
2018-07-17T09:31:58.443Z,1008.98
2018-07-17T09:32:58.381Z,1009.03
2018-07-17T09:33:58.327Z,1008.98
2018-07-17T09:34:58.261Z,1009.01
2018-07-17T09:35:58.197Z,1009.01
2018-07-17T09:36:58.141Z,1008.98
2018-07-17T09:37:58.082Z,1009.04
2018-07-17T09:38:58.071Z,1009.04
2018-07-17T09:39:57.964Z,1009.08
2018-07-17T09:40:57.909Z,1009.06
2018-07-17T09:41:57.847Z,1009.10
2018-07-17T09:42:57.790Z,1009.08
2018-07-17T09:43:57.731Z,1009.12
2018-07-17T09:44:57.673Z,1009.13
2018-07-17T09:45:57.616Z,1009.13
2018-07-17T09:46:57.554Z,1009.09
2018-07-17T09:47:57.498Z,1009.14
2018-07-17T09:48:57.439Z,1009.18
2018-07-17T09:49:57.381Z,1009.14
2018-07-17T09:50:57.326Z,1009.09
2018-07-17T09:51:57.270Z,1009.16
2018-07-17T09:52:57.211Z,1009.14
2018-07-17T09:53:57.167Z,1009.10
2018-07-17T09:54:57.096Z,1009.13
2018-07-17T09:55:57.041Z,1009.14
2018-07-17T09:56:56.985Z,1009.13
2018-07-17T09:57:56.926Z,1009.12
2018-07-17T09:58:56.872Z,1009.18
2018-07-17T09:59:56.819Z,1009.17
2018-07-17T10:00:56.758Z,1009.12
2018-07-17T10:01:56.701Z,1009.17
2018-07-17T10:02:56.644Z,1009.10
2018-07-17T10:03:56.589Z,1009.17
2018-07-17T10:04:56.536Z,1009.21
2018-07-17T10:05:56.475Z,1009.21
2018-07-17T10:06:56.423Z,1009.21
2018-07-17T10:07:56.371Z,1009.13
2018-07-17T10:08:56.313Z,1009.14
2018-07-17T10:09:56.259Z,1009.15
2018-07-17T10:10:56.201Z,1009.16
2018-07-17T10:11:56.144Z,1009.17
2018-07-17T10:12:56.087Z,1009.08
2018-07-17T10:13:56.035Z,1009.10
2018-07-17T10:14:55.980Z,1009.09
2018-07-17T10:15:55.925Z,1009.15
2018-07-17T10:16:55.866Z,1009.07
2018-07-17T10:17:55.809Z,1009.11
2018-07-17T10:18:55.762Z,1009.04
2018-07-17T10:19:55.703Z,1009.08
2018-07-17T10:20:55.643Z,1009.05
2018-07-17T10:21:55.603Z,1009.04
2018-07-17T10:22:55.534Z,1009.06
2018-07-17T10:23:55.476Z,1009.05
2018-07-17T10:24:55.416Z,1009.03
2018-07-17T10:25:55.358Z,1009.04
2018-07-17T10:26:55.303Z,1009.01
2018-07-17T10:27:55.240Z,1009.02
2018-07-17T10:28:55.182Z,1009.06
2018-07-17T10:29:55.124Z,1009.12
2018-07-17T10:30:55.067Z,1009.11
2018-07-17T10:31:55.038Z,1009.10
2018-07-17T10:32:54.946Z,1009.12
2018-07-17T10:33:54.882Z,1009.06
2018-07-17T10:34:54.832Z,1009.08
2018-07-17T10:35:54.764Z,1009.09
2018-07-17T10:36:54.707Z,1009.11
2018-07-17T10:37:54.640Z,1009.12
2018-07-17T10:38:54.588Z,1009.04
2018-07-17T10:39:54.525Z,1009.06
2018-07-17T10:40:54.462Z,1009.01
2018-07-17T10:41:54.401Z,1009.04
2018-07-17T10:42:54.360Z,1009.03
2018-07-17T10:43:54.286Z,1008.99
2018-07-17T10:44:54.218Z,1009.08
2018-07-17T10:45:54.159Z,1009.04
2018-07-17T10:46:54.106Z,1009.08
2018-07-17T10:47:54.034Z,1009.09
2018-07-17T10:48:53.971Z,1009.07
2018-07-17T10:49:53.909Z,1009.09
2018-07-17T10:50:53.853Z,1009.08
2018-07-17T10:51:53.786Z,1009.06
2018-07-17T10:52:53.728Z,1009.02
2018-07-17T10:53:53.666Z,1008.97
2018-07-17T10:54:53.603Z,1008.96
2018-07-17T10:55:53.537Z,1009.06
2018-07-17T10:56:53.479Z,1009.12
2018-07-17T10:57:53.416Z,1009.06
2018-07-17T10:58:53.352Z,1009.05
2018-07-17T10:59:53.294Z,1009.12
2018-07-17T11:00:53.251Z,1009.04
2018-07-17T11:01:53.164Z,1008.97
2018-07-17T11:02:53.112Z,1009.00
2018-07-17T11:03:53.048Z,1008.96
2018-07-17T11:04:52.982Z,1009.07
2018-07-17T11:05:52.923Z,1009.03
2018-07-17T11:06:52.885Z,1008.99
2018-07-17T11:07:52.823Z,1008.94
2018-07-17T11:08:52.742Z,1008.91
2018-07-17T11:09:52.672Z,1008.91
2018-07-17T11:10:52.615Z,1008.89
2018-07-17T11:11:52.556Z,1008.85
2018-07-17T11:12:52.486Z,1008.75
2018-07-17T11:13:52.425Z,1008.79
2018-07-17T11:14:52.364Z,1008.84
2018-07-17T11:15:52.301Z,1008.85
2018-07-17T11:16:52.238Z,1008.82
2018-07-17T11:17:52.176Z,1008.83
2018-07-17T11:18:52.115Z,1008.82
2018-07-17T11:19:52.052Z,1008.81
2018-07-17T11:20:51.991Z,1008.81
2018-07-17T11:21:51.928Z,1008.89
2018-07-17T11:22:51.865Z,1009.05
2018-07-17T11:23:51.803Z,1009.09
2018-07-17T11:24:51.745Z,1009.04
2018-07-17T11:25:51.677Z,1008.95
2018-07-17T11:26:51.621Z,1008.83
2018-07-17T11:27:51.559Z,1008.81
2018-07-17T11:28:51.496Z,1008.99
2018-07-17T11:29:51.437Z,1009.01
2018-07-17T11:30:51.376Z,1008.85
2018-07-17T11:31:51.371Z,1008.91
2018-07-17T11:32:51.254Z,1008.93
2018-07-17T11:33:51.193Z,1008.67
2018-07-17T11:34:51.137Z,1008.67
2018-07-17T11:35:51.073Z,1008.73
2018-07-17T11:36:51.019Z,1008.77
2018-07-17T11:37:50.955Z,1008.70
2018-07-17T11:38:50.960Z,1008.66
2018-07-17T11:39:50.850Z,1008.65
2018-07-17T11:40:50.781Z,1008.61
2018-07-17T11:41:50.724Z,1008.69
2018-07-17T11:42:50.715Z,1008.65
2018-07-17T11:43:50.601Z,1008.61
2018-07-17T11:44:50.555Z,1008.60
2018-07-17T11:45:50.479Z,1008.62
2018-07-17T11:46:50.420Z,1008.62
2018-07-17T11:47:50.414Z,1008.58
2018-07-17T11:48:50.305Z,1008.56
2018-07-17T11:49:50.254Z,1008.54
2018-07-17T11:50:50.174Z,1008.51
2018-07-17T11:51:50.113Z,1008.55
2018-07-17T11:52:50.071Z,1008.54
2018-07-17T11:53:49.997Z,1008.57
2018-07-17T11:54:49.937Z,1008.50
2018-07-17T11:55:49.873Z,1008.49
2018-07-17T11:56:49.813Z,1008.48
2018-07-17T11:57:49.748Z,1008.49
2018-07-17T11:58:49.708Z,1008.48
2018-07-17T11:59:49.624Z,1008.53
2018-07-17T12:00:49.560Z,1008.53
2018-07-17T12:01:49.504Z,1008.53
2018-07-17T12:02:49.441Z,1008.48
2018-07-17T12:03:49.379Z,1008.38
2018-07-17T12:04:49.319Z,1008.51
2018-07-17T12:05:49.265Z,1008.44
2018-07-17T12:06:49.193Z,1008.41
2018-07-17T12:07:49.135Z,1008.44
2018-07-17T12:08:49.073Z,1008.42
2018-07-17T12:09:49.009Z,1008.40
2018-07-17T12:10:48.953Z,1008.33
2018-07-17T12:11:48.888Z,1008.36
2018-07-17T12:12:48.909Z,1008.36
2018-07-17T12:13:48.766Z,1008.40
2018-07-17T12:14:48.705Z,1008.38
2018-07-17T12:15:48.648Z,1008.39
2018-07-17T12:16:48.584Z,1008.37
2018-07-17T12:17:48.520Z,1008.41
2018-07-17T12:18:48.459Z,1008.43
2018-07-17T12:19:48.428Z,1008.41
2018-07-17T12:20:48.336Z,1008.39
2018-07-17T12:21:48.277Z,1008.37
2018-07-17T12:22:48.216Z,1008.40
2018-07-17T12:23:48.152Z,1008.43
2018-07-17T12:24:48.089Z,1008.37
2018-07-17T12:25:48.030Z,1008.36
2018-07-17T12:26:47.966Z,1008.42
2018-07-17T12:27:47.905Z,1008.42
2018-07-17T12:28:47.860Z,1008.42
2018-07-17T12:29:47.779Z,1008.36
2018-07-17T12:30:47.724Z,1008.40
2018-07-17T12:31:47.657Z,1008.40
2018-07-17T12:32:47.590Z,1008.44
2018-07-17T12:33:47.531Z,1008.33
2018-07-17T12:34:47.497Z,1008.38
2018-07-17T12:35:47.415Z,1008.37
2018-07-17T12:36:47.342Z,1008.41
2018-07-17T12:37:47.281Z,1008.45
2018-07-17T12:38:47.219Z,1008.49
2018-07-17T12:39:47.158Z,1008.45
2018-07-17T12:40:47.101Z,1008.52
2018-07-17T12:41:47.044Z,1008.49
2018-07-17T12:42:47.011Z,1008.55
2018-07-17T12:43:46.908Z,1008.50
2018-07-17T12:44:46.846Z,1008.48
2018-07-17T12:45:46.784Z,1008.49
2018-07-17T12:46:46.717Z,1008.45
2018-07-17T12:47:46.661Z,1008.44
2018-07-17T12:48:46.605Z,1008.41
2018-07-17T12:49:46.619Z,1008.46
2018-07-17T12:50:46.485Z,1008.40
2018-07-17T12:51:46.408Z,1008.45
2018-07-17T12:52:46.348Z,1008.51
2018-07-17T12:53:46.284Z,1008.47
2018-07-17T12:54:46.222Z,1008.42
2018-07-17T12:55:46.161Z,1008.49
2018-07-17T12:56:46.099Z,1008.46
2018-07-17T12:57:46.036Z,1008.48
2018-07-17T12:58:45.969Z,1008.42
2018-07-17T12:59:45.916Z,1008.44
2018-07-17T13:00:45.849Z,1008.45
2018-07-17T13:01:45.783Z,1008.48
2018-07-17T13:02:45.742Z,1008.41
2018-07-17T13:03:45.663Z,1008.35
2018-07-17T13:04:45.601Z,1008.38
2018-07-17T13:05:45.543Z,1008.37
2018-07-17T13:06:45.475Z,1008.42
2018-07-17T13:07:45.424Z,1008.39
2018-07-17T13:08:45.355Z,1008.37
2018-07-17T13:09:45.289Z,1008.39
2018-07-17T13:10:45.230Z,1008.41
2018-07-17T13:11:45.167Z,1008.40
2018-07-17T13:12:45.102Z,1008.42
2018-07-17T13:13:45.042Z,1008.43
2018-07-17T13:14:45.017Z,1008.41